createdAt,value
2023-03-23T00:04:30.458Z,10.18
2023-03-23T00:09:49.567Z,10.21
2023-03-23T00:20:28.193Z,10.21
2023-03-23T00:25:47.372Z,10.21
2023-03-23T00:31:06.303Z,10.21
2023-03-23T00:36:25.428Z,10.2
2023-03-23T00:47:03.197Z,10.21
2023-03-23T00:52:22.590Z,10.22
2023-03-23T00:57:42.053Z,10.21
2023-03-23T01:03:01.149Z,10.22
2023-03-23T01:08:20.728Z,10.2
2023-03-23T01:13:40.162Z,10.2
2023-03-23T01:18:59.410Z,10.21
2023-03-23T01:24:18.597Z,10.2
2023-03-23T01:29:37.645Z,10.21
2023-03-23T01:34:56.454Z,10.2
2023-03-23T01:45:34.143Z,10.18
2023-03-23T01:50:53.310Z,10.14
2023-03-23T02:01:31.401Z,10.1
2023-03-23T02:12:09.705Z,10.05
2023-03-23T02:17:29.323Z,10.04
2023-03-23T02:22:48.974Z,10.02
2023-03-23T02:28:07.921Z,10.05
2023-03-23T02:33:27.295Z,10.05
2023-03-23T02:38:46.389Z,10.04
2023-03-23T02:44:05.274Z,10.04
2023-03-23T02:49:24.844Z,10.04
2023-03-23T02:54:43.842Z,10.04
2023-03-23T03:00:03.321Z,9.97
2023-03-23T03:05:22.189Z,9.97
2023-03-23T03:10:41.746Z,9.93
2023-03-23T03:16:01.351Z,9.85
2023-03-23T03:26:39.274Z,9.91
2023-03-23T03:37:18.091Z,9.97
2023-03-23T03:42:37.304Z,9.97
2023-03-23T03:47:56.689Z,10.02
2023-03-23T03:53:16.080Z,10.01
2023-03-23T03:58:34.794Z,10.01
2023-03-23T04:03:53.820Z,10
2023-03-23T04:09:13.519Z,9.97
2023-03-23T04:14:32.240Z,9.97
2023-03-23T04:19:51.059Z,9.95
2023-03-23T04:25:10.394Z,9.93
2023-03-23T04:30:29.641Z,9.95
2023-03-23T04:35:48.737Z,9.91
2023-03-23T04:41:07.552Z,9.91
2023-03-23T04:46:27.012Z,9.93
2023-03-23T04:51:46.628Z,9.97
2023-03-23T04:57:05.446Z,9.97
2023-03-23T05:07:44.250Z,9.97
2023-03-23T05:13:03.660Z,9.97
2023-03-23T05:18:22.433Z,9.95
2023-03-23T05:23:41.322Z,9.97
2023-03-23T05:34:19.636Z,10.01
2023-03-23T05:39:38.462Z,10.04
2023-03-23T05:50:16.748Z,10.1
2023-03-23T05:55:36.051Z,10.1
2023-03-23T06:00:55.081Z,10.14
2023-03-23T06:11:32.926Z,10.17
2023-03-23T06:16:51.672Z,10.18
2023-03-23T06:27:30.313Z,10.24
2023-03-23T06:38:09.078Z,10.28
2023-03-23T06:43:27.849Z,10.27
2023-03-23T06:48:47.229Z,10.31
2023-03-23T06:54:06.484Z,10.34
2023-03-23T06:59:25.894Z,10.37
2023-03-23T07:04:44.941Z,10.38
2023-03-23T07:10:04.218Z,10.4
2023-03-23T07:15:23.086Z,10.48
2023-03-23T07:26:02.238Z,10.56
2023-03-23T07:31:21.864Z,10.59
2023-03-23T07:36:40.951Z,10.59
2023-03-23T07:42:00.010Z,10.56
2023-03-23T07:47:19.311Z,10.59
2023-03-23T07:52:38.513Z,10.68
2023-03-23T07:57:57.240Z,10.78
2023-03-23T08:08:36.093Z,11.03
2023-03-23T08:13:55.593Z,11.23
2023-03-23T08:19:14.702Z,11.3
2023-03-23T08:24:33.484Z,11.29
2023-03-23T08:29:52.666Z,11.44
2023-03-23T08:35:12.219Z,11.59
2023-03-23T08:40:31.096Z,11.75
2023-03-23T08:51:09.273Z,11.81
2023-03-23T09:01:47.587Z,11.64
2023-03-23T09:07:06.705Z,11.67
2023-03-23T09:12:26.388Z,11.66
2023-03-23T09:17:45.077Z,11.69
2023-03-23T09:23:04.917Z,11.74
2023-03-23T09:28:23.644Z,11.67
2023-03-23T09:33:47.065Z,11.64
2023-03-23T09:39:02.413Z,11.66
2023-03-23T09:49:41.805Z,11.84
2023-03-23T10:00:19.701Z,12.14
2023-03-23T10:05:39.184Z,12.21
2023-03-23T10:10:58.201Z,12.32
2023-03-23T10:16:17.049Z,12.21
2023-03-23T10:21:35.972Z,12.06
2023-03-23T10:26:54.712Z,11.98
2023-03-23T10:32:14.056Z,11.9
2023-03-23T10:37:32.689Z,11.81
2023-03-23T10:42:52.390Z,11.73
2023-03-23T10:48:11.556Z,11.66
2023-03-23T10:53:30.835Z,11.66
2023-03-23T10:58:50.200Z,11.71
2023-03-23T11:04:09.567Z,11.78
2023-03-23T11:14:48.495Z,12.22
2023-03-23T11:25:26.707Z,12.31
2023-03-23T11:30:46.121Z,12.26
2023-03-23T11:41:24.029Z,12.83
2023-03-23T11:46:43.246Z,12.99
2023-03-23T11:57:22.379Z,13.16
2023-03-23T12:02:42.086Z,12.97
2023-03-23T12:13:21.034Z,12.95
2023-03-23T12:18:38.691Z,12.85
2023-03-23T12:24:00.248Z,12.79
2023-03-23T12:29:17.317Z,12.8
2023-03-23T12:34:36.974Z,12.82
2023-03-23T12:39:56.642Z,12.66
2023-03-23T12:45:16.166Z,12.63
2023-03-23T12:55:54.264Z,12.76
2023-03-23T13:01:13.420Z,12.86
2023-03-23T13:06:32.203Z,12.86
2023-03-23T13:11:51.395Z,12.83
2023-03-23T13:17:10.239Z,12.86
2023-03-23T13:22:28.972Z,12.93
2023-03-23T13:27:47.781Z,13.04
2023-03-23T13:33:07.281Z,13.07
2023-03-23T13:38:26.313Z,13.12
2023-03-23T13:49:11.001Z,13.2
2023-03-23T13:54:24.135Z,13.26
2023-03-23T13:59:43.271Z,13.17
2023-03-23T14:05:02.531Z,13.12
2023-03-23T14:15:41.698Z,13.28
2023-03-23T14:21:00.626Z,13.24
2023-03-23T14:31:38.895Z,13.02
2023-03-23T14:36:57.685Z,12.92
2023-03-23T14:42:16.785Z,12.76
2023-03-23T14:47:35.936Z,12.69
2023-03-23T14:52:54.966Z,12.65
2023-03-23T14:58:14.134Z,12.65
2023-03-23T15:03:33.283Z,12.66
2023-03-23T15:08:52.481Z,12.7
2023-03-23T15:14:11.733Z,12.85
2023-03-23T15:19:30.609Z,12.99
2023-03-23T15:24:49.872Z,13.09
2023-03-23T15:30:09.479Z,13.09
2023-03-23T15:35:28.670Z,12.97
2023-03-23T15:40:47.637Z,12.89
2023-03-23T15:46:06.861Z,12.85
2023-03-23T15:51:26.208Z,12.9
2023-03-23T15:56:45.846Z,12.92
2023-03-23T16:02:04.871Z,12.89
2023-03-23T16:12:42.691Z,12.83
2023-03-23T16:23:45.728Z,12.83
2023-03-23T16:29:12.884Z,12.68
2023-03-23T16:34:24.164Z,12.59
2023-03-23T16:45:01.842Z,12.49
2023-03-23T16:55:39.523Z,12.36
2023-03-23T17:00:58.900Z,12.29
2023-03-23T17:11:37.252Z,12.08
2023-03-23T17:16:56.004Z,11.97
2023-03-23T17:22:15.294Z,11.88
2023-03-23T17:27:34.633Z,11.81
2023-03-23T17:32:53.748Z,11.71
2023-03-23T17:38:12.547Z,11.63
2023-03-23T17:43:32.036Z,11.54
2023-03-23T17:48:50.964Z,11.5
2023-03-23T17:54:09.980Z,11.43
2023-03-23T17:59:29.394Z,11.4
2023-03-23T18:04:48.563Z,11.4
2023-03-23T18:10:07.853Z,11.41
2023-03-23T18:15:28.081Z,11.34
2023-03-23T18:20:46.287Z,11.29
2023-03-23T18:26:06.022Z,11.27
2023-03-23T18:31:25.488Z,11.2
2023-03-23T18:36:44.785Z,11.18
2023-03-23T18:42:03.751Z,11.13
2023-03-23T18:52:42.689Z,10.91
2023-03-23T18:58:02.011Z,10.86
2023-03-23T19:03:20.895Z,10.79
2023-03-23T19:08:40.000Z,10.69
2023-03-23T19:14:02.730Z,10.61
2023-03-23T19:19:19.475Z,10.56
2023-03-23T19:24:39.003Z,10.54
2023-03-23T19:29:57.743Z,10.48
2023-03-23T19:35:17.027Z,10.48
2023-03-23T19:45:55.516Z,10.37
2023-03-23T19:51:14.569Z,10.35
2023-03-23T20:01:52.882Z,10.38
2023-03-23T20:07:11.906Z,10.42
2023-03-23T20:12:31.121Z,10.45
2023-03-23T20:17:50.092Z,10.45
2023-03-23T20:23:09.535Z,10.46
2023-03-23T20:28:28.663Z,10.49
2023-03-23T20:39:06.963Z,10.54
2023-03-23T20:44:25.938Z,10.55
2023-03-23T20:49:52.567Z,10.58
2023-03-23T20:55:03.578Z,10.56
2023-03-23T21:00:23.056Z,10.58
2023-03-23T21:11:01.175Z,10.62
2023-03-23T21:16:20.907Z,10.64
2023-03-23T21:21:40.089Z,10.64
2023-03-23T21:26:59.468Z,10.59
2023-03-23T21:32:18.255Z,10.56
2023-03-23T21:37:36.994Z,10.58
2023-03-23T21:42:56.022Z,10.55
2023-03-23T21:48:14.952Z,10.52
2023-03-23T21:53:33.751Z,10.51
2023-03-23T21:58:53.105Z,10.46
2023-03-23T22:09:31.223Z,10.44
2023-03-23T22:14:50.501Z,10.42
2023-03-23T22:20:09.715Z,10.4
2023-03-23T22:25:28.933Z,10.37
2023-03-23T22:30:48.209Z,10.32
2023-03-23T22:36:07.001Z,10.28
2023-03-23T22:41:26.415Z,10.21
2023-03-23T22:46:45.525Z,10.21
2023-03-23T22:52:04.466Z,10.18
2023-03-23T22:57:23.934Z,10.17
2023-03-23T23:02:43.487Z,10.1
2023-03-23T23:08:02.251Z,10.08
2023-03-23T23:13:22.078Z,10.02
2023-03-23T23:18:41.627Z,10.01
2023-03-23T23:24:01.036Z,9.97
2023-03-23T23:34:39.642Z,10
2023-03-23T23:39:59.122Z,10.02
2023-03-23T23:45:17.788Z,9.97
2023-03-23T23:50:37.173Z,10
2023-03-23T23:55:56.181Z,10.07
